Time;durP1;ratioP1;P1;durP2;ratioP2;P2;SDS_P1;SDS_P2;PMS_P1;PMS_P2;Temp;Humidity;BMP_temperature;BMP_pressure;BME280_temperature;BME280_humidity;BME280_pressure;Samples;Min_cycle;Max_cycle;Signal;HPM_P1;HPM_P2
2022/11/15 08:32:07;;;;;;;90.40;48.95;;;;;;;;;;5891513;23;20149;31
2022/11/15 08:34:33;;;;;;;92.20;49.28;;;;;;;;;;4853516;29;19967;-77
2022/11/15 08:36:59;;;;;;;85.57;48.25;;;;;;;;;;4857568;29;20071;-73
2022/11/15 08:39:25;;;;;;;81.97;48.58;;;;;;;;;;4873551;29;20049;-78
2022/11/15 08:41:51;;;;;;;83.20;46.15;;;;;;;;;;4873102;29;20045;-76
2022/11/15 08:44:17;;;;;;;83.70;45.58;;;;;;;;;;4873328;29;20132;-73
2022/11/15 08:46:45;;;;;;;79.13;45.58;;;;;;;;;;4875597;29;20096;-71
2022/11/15 08:49:12;;;;;;;79.55;46.08;;;;;;;;;;4874625;29;20048;-77
2022/11/15 08:51:38;;;;;;;75.78;44.45;;;;;;;;;;4856699;29;20060;-71
2022/11/15 08:54:05;;;;;;;75.72;44.30;;;;;;;;;;4872834;29;20064;-71
2022/11/15 08:56:31;;;;;;;72.88;42.78;;;;;;;;;;4873395;29;20044;-75
2022/11/15 08:58:57;;;;;;;62.63;40.47;;;;;;;;;;4872279;29;20149;-73
2022/11/15 09:01:23;;;;;;;64.72;38.08;;;;;;;;;;4871662;29;20123;-75
2022/11/15 09:03:49;;;;;;;68.15;40.45;;;;;;;;;;4870937;29;20041;-71
2022/11/15 09:06:15;;;;;;;61.78;38.97;;;;;;;;;;4870898;29;20144;-74
2022/11/15 09:08:41;;;;;;;63.63;39.65;;;;;;;;;;4873979;29;20091;-73
2022/11/15 09:11:09;;;;;;;58.17;36.15;;;;;;;;;;4873044;29;20109;-74
2022/11/15 09:13:36;;;;;;;65.10;38.45;;;;;;;;;;4874537;29;20061;-75
2022/11/15 09:16:03;;;;;;;62.65;37.50;;;;;;;;;;4872681;29;20639;-75
2022/11/15 09:18:30;;;;;;;60.75;37.22;;;;;;;;;;4838918;29;20057;-76
2022/11/15 09:20:59;;;;;;;56.13;35.80;;;;;;;;;;4874109;29;20434;-76
2022/11/15 09:23:26;;;;;;;57.80;36.20;;;;;;;;;;4855899;29;20092;-77
2022/11/15 09:25:52;;;;;;;53.22;34.75;;;;;;;;;;4874772;29;20438;-76
2022/11/15 09:28:19;;;;;;;55.42;34.78;;;;;;;;;;4857236;29;20120;-73
2022/11/15 09:30:45;;;;;;;48.47;32.95;;;;;;;;;;4874105;29;20041;-73
2022/11/15 09:33:12;;;;;;;49.67;34.45;;;;;;;;;;4874859;29;20061;-74
2022/11/15 09:35:39;;;;;;;57.40;34.03;;;;;;;;;;4869351;29;20485;-70
2022/11/15 09:38:05;;;;;;;53.83;34.78;;;;;;;;;;4877233;29;20450;-71
2022/11/15 09:40:32;;;;;;;48.90;32.08;;;;;;;;;;4878150;29;20052;-74
2022/11/15 09:43:17;;;;;;;53.00;33.67;;;;;;;;;;4876513;29;20128;-73
2022/11/15 09:45:49;;;;;;;47.83;31.73;;;;;;;;;;4878216;29;20450;-72
2022/11/15 09:48:29;;;;;;;51.53;32.67;;;;;;;;;;4860066;29;20052;-73
2022/11/15 09:50:58;;;;;;;45.85;31.33;;;;;;;;;;4877262;29;20160;-74
2022/11/15 09:53:30;;;;;;;51.17;32.65;;;;;;;;;;4876518;29;20212;-74
2022/11/15 09:56:01;;;;;;;48.75;32.42;;;;;;;;;;4860721;29;20411;-73
2022/11/15 09:58:31;;;;;;;46.65;31.73;;;;;;;;;;4876745;29;20394;-74
2022/11/15 10:01:00;;;;;;;52.33;31.90;;;;;;;;;;4876389;29;20057;-71
2022/11/15 10:03:29;;;;;;;49.00;31.95;;;;;;;;;;4859444;29;20478;-76
2022/11/15 10:05:57;;;;;;;47.70;29.98;;;;;;;;;;4877882;29;20141;-73
2022/11/15 10:08:23;;;;;;;53.45;31.75;;;;;;;;;;4877083;29;20052;-71
2022/11/15 10:10:52;;;;;;;49.80;31.45;;;;;;;;;;4877410;29;20671;-76
2022/11/15 10:13:48;;;;;;;48.10;31.10;;;;;;;;;;4878390;29;20060;-72
2022/11/15 10:16:23;;;;;;;50.55;30.70;;;;;;;;;;4862353;29;20060;-74
2022/11/15 10:18:55;;;;;;;47.15;29.60;;;;;;;;;;4875633;29;20056;-73
2022/11/15 10:21:24;;;;;;;44.88;28.35;;;;;;;;;;4875728;29;20411;-74
2022/11/15 10:23:51;;;;;;;50.25;30.60;;;;;;;;;;4876275;29;20521;-73
2022/11/15 10:26:17;;;;;;;45.08;29.45;;;;;;;;;;4877814;29;20048;-74
2022/11/15 10:28:43;;;;;;;42.90;28.38;;;;;;;;;;4875515;29;20525;-74
2022/11/15 10:31:26;;;;;;;43.45;29.77;;;;;;;;;;4876504;29;20121;-72
2022/11/15 10:33:59;;;;;;;44.38;28.55;;;;;;;;;;4868864;29;20064;-74
2022/11/15 10:36:25;;;;;;;42.80;29.05;;;;;;;;;;4877223;29;20141;-73
2022/11/15 10:38:52;;;;;;;42.60;30.13;;;;;;;;;;4877094;29;20085;-74
2022/11/15 10:41:23;;;;;;;43.45;28.42;;;;;;;;;;4877386;29;20196;-75
2022/11/15 10:44:07;;;;;;;43.75;27.67;;;;;;;;;;4860251;29;20068;-75
2022/11/15 10:46:34;;;;;;;44.17;29.40;;;;;;;;;;4876212;29;20117;-74
2022/11/15 10:49:19;;;;;;;43.45;27.30;;;;;;;;;;4875961;29;20075;-73
2022/11/15 10:51:45;;;;;;;45.08;27.02;;;;;;;;;;4874821;29;20098;-75
2022/11/15 10:54:11;;;;;;;39.00;26.90;;;;;;;;;;4877095;29;20099;-74
2022/11/15 10:56:37;;;;;;;43.65;28.02;;;;;;;;;;4874960;29;20052;-74
2022/11/15 10:59:04;;;;;;;41.83;27.92;;;;;;;;;;4859364;29;20149;-74
2022/11/15 11:01:30;;;;;;;42.25;27.08;;;;;;;;;;4859297;29;20423;-72
2022/11/15 11:04:05;;;;;;;45.88;29.17;;;;;;;;;;4876845;29;20133;-72
2022/11/15 11:06:46;;;;;;;44.75;28.50;;;;;;;;;;4877044;29;20400;-73
2022/11/15 11:09:22;;;;;;;42.45;28.25;;;;;;;;;;4859721;29;20074;-73
2022/11/15 11:11:49;;;;;;;42.10;27.50;;;;;;;;;;4875765;29;20052;-74
2022/11/15 11:14:18;;;;;;;47.97;28.98;;;;;;;;;;4874011;29;20413;-75
2022/11/15 11:16:53;;;;;;;46.58;29.17;;;;;;;;;;4876558;29;20398;-75
2022/11/15 11:19:38;;;;;;;45.97;30.08;;;;;;;;;;4877297;29;20053;-74
2022/11/15 11:22:10;;;;;;;47.45;31.38;;;;;;;;;;4876760;29;20136;-71
2022/11/15 11:24:54;;;;;;;48.03;31.65;;;;;;;;;;4876350;29;20228;-72
2022/11/15 11:27:39;;;;;;;46.10;30.58;;;;;;;;;;4874442;29;20454;-71
2022/11/15 11:30:22;;;;;;;48.58;31.13;;;;;;;;;;4875544;29;20068;-71
2022/11/15 11:32:51;;;;;;;43.75;30.23;;;;;;;;;;4876568;29;20373;-70
2022/11/15 11:35:23;;;;;;;42.53;29.65;;;;;;;;;;4858949;29;20136;-72
2022/11/15 11:37:53;;;;;;;45.95;29.88;;;;;;;;;;4873429;29;20045;-72
2022/11/15 11:40:31;;;;;;;43.90;30.20;;;;;;;;;;4858223;29;20075;-73
2022/11/15 11:43:01;;;;;;;47.40;31.33;;;;;;;;;;4870327;29;20059;-73
2022/11/15 11:45:27;;;;;;;43.33;29.60;;;;;;;;;;4875860;29;20120;-74
2022/11/15 11:47:56;;;;;;;39.95;28.48;;;;;;;;;;4875002;29;20450;-73
2022/11/15 11:50:25;;;;;;;47.47;29.98;;;;;;;;;;4874010;29;20351;-74
2022/11/15 11:52:54;;;;;;;40.42;26.58;;;;;;;;;;4874290;29;20351;-70
2022/11/15 11:55:28;;;;;;;43.35;26.70;;;;;;;;;;4872043;29;20097;-74
2022/11/15 11:57:54;;;;;;;37.08;24.98;;;;;;;;;;4873822;29;20061;-77
2022/11/15 12:00:22;;;;;;;36.10;23.48;;;;;;;;;;4874559;29;20049;-75
2022/11/15 12:03:01;;;;;;;31.90;22.33;;;;;;;;;;4858582;29;20132;-76
2022/11/15 12:05:56;;;;;;;30.98;22.10;;;;;;;;;;4874399;29;20093;-72
2022/11/15 12:08:32;;;;;;;29.50;20.65;;;;;;;;;;4825178;29;20072;-73
2022/11/15 12:11:07;;;;;;;27.80;19.35;;;;;;;;;;4873579;29;20048;-74
2022/11/15 12:13:36;;;;;;;29.92;19.17;;;;;;;;;;4876142;29;20065;-71
2022/11/15 12:16:17;;;;;;;26.67;18.08;;;;;;;;;;4875964;29;20069;-74
2022/11/15 12:18:50;;;;;;;25.95;18.35;;;;;;;;;;4869679;29;20505;-74
2022/11/15 12:21:19;;;;;;;23.92;16.75;;;;;;;;;;4875031;29;20561;-73
2022/11/15 12:23:47;;;;;;;25.45;16.98;;;;;;;;;;4872440;29;20128;-72
2022/11/15 12:26:22;;;;;;;23.23;14.48;;;;;;;;;;4874687;29;20060;-71
2022/11/15 12:28:51;;;;;;;22.00;13.77;;;;;;;;;;4875826;29;20078;-71
2022/11/15 12:31:21;;;;;;;19.90;9.98;;;;;;;;;;4875986;29;20049;-74
2022/11/15 12:33:48;;;;;;;17.35;8.25;;;;;;;;;;4875626;29;20524;-72
2022/11/15 12:36:23;;;;;;;14.75;7.93;;;;;;;;;;4875687;29;20115;-71
2022/11/15 12:39:03;;;;;;;15.45;8.07;;;;;;;;;;4875768;29;20056;-75
2022/11/15 12:41:36;;;;;;;16.95;9.90;;;;;;;;;;4875831;29;20049;-70
2022/11/15 12:44:03;;;;;;;16.95;9.30;;;;;;;;;;4858384;29;20052;-72
2022/11/15 12:46:29;;;;;;;16.27;9.40;;;;;;;;;;4876080;29;20330;-72
2022/11/15 12:48:55;;;;;;;19.83;9.27;;;;;;;;;;4875510;29;20139;-72
2022/11/15 12:51:23;;;;;;;19.05;8.05;;;;;;;;;;4875633;29;20194;-72
2022/11/15 12:53:49;;;;;;;15.18;7.75;;;;;;;;;;4875991;29;20057;-71
2022/11/15 12:56:15;;;;;;;17.70;8.32;;;;;;;;;;4875506;29;20071;-72
2022/11/15 12:58:45;;;;;;;17.05;8.10;;;;;;;;;;4875480;29;20179;-71
2022/11/15 13:01:35;;;;;;;16.23;7.75;;;;;;;;;;4875082;29;20075;-73
2022/11/15 13:04:21;;;;;;;16.27;8.75;;;;;;;;;;4874988;29;20061;-73
2022/11/15 13:06:47;;;;;;;18.83;7.80;;;;;;;;;;4859707;29;20056;-72
2022/11/15 13:09:28;;;;;;;16.30;7.90;;;;;;;;;;4858155;29;20377;-72
2022/11/15 13:11:55;;;;;;;15.85;8.27;;;;;;;;;;4874729;29;20201;-73
2022/11/15 13:14:40;;;;;;;16.83;8.77;;;;;;;;;;4875505;29;20084;-68
2022/11/15 13:17:26;;;;;;;15.25;8.55;;;;;;;;;;4874874;29;20049;-71
2022/11/15 13:19:58;;;;;;;19.13;8.45;;;;;;;;;;4858498;29;20111;-73
2022/11/15 13:25:36;;;;;;;14.50;7.38;;;;;;;;;;4874876;29;20116;-70
2022/11/15 13:28:10;;;;;;;17.02;7.80;;;;;;;;;;4839378;29;20144;-71
2022/11/15 13:30:37;;;;;;;16.63;7.53;;;;;;;;;;4872965;29;20409;-72
2022/11/15 13:33:11;;;;;;;20.27;8.18;;;;;;;;;;4873306;29;20049;-72
2022/11/15 13:35:40;;;;;;;16.30;8.23;;;;;;;;;;4853685;29;20069;-72
2022/11/15 13:38:06;;;;;;;13.35;7.70;;;;;;;;;;4851895;29;20415;-73
2022/11/15 13:40:36;;;;;;;15.73;7.53;;;;;;;;;;4855111;29;20424;-74
2022/11/15 13:43:21;;;;;;;15.90;7.78;;;;;;;;;;4855636;29;20046;-73
2022/11/15 13:46:06;;;;;;;16.23;7.90;;;;;;;;;;4851689;29;20072;-73
2022/11/15 13:48:33;;;;;;;15.57;7.60;;;;;;;;;;4856251;29;20074;-72
2022/11/15 13:51:00;;;;;;;17.85;7.53;;;;;;;;;;4854356;29;20061;-73
2022/11/15 13:53:26;;;;;;;14.35;7.38;;;;;;;;;;4853261;29;20199;-72
2022/11/15 13:55:54;;;;;;;15.48;6.90;;;;;;;;;;4856405;29;20045;-72
2022/11/15 13:58:20;;;;;;;15.68;7.35;;;;;;;;;;4855701;29;20344;-73
2022/11/15 14:00:47;;;;;;;14.50;6.90;;;;;;;;;;4853898;29;20129;-74
2022/11/15 14:03:20;;;;;;;15.68;6.90;;;;;;;;;;4853355;29;20085;-72
2022/11/15 14:06:06;;;;;;;13.40;6.40;;;;;;;;;;4855175;29;20057;-73
2022/11/15 14:08:33;;;;;;;13.98;6.78;;;;;;;;;;4853531;29;21651;-71
2022/11/15 14:11:10;;;;;;;15.77;6.32;;;;;;;;;;4854264;29;20046;-72
2022/11/15 14:13:36;;;;;;;14.00;6.38;;;;;;;;;;4853136;29;20073;-72
2022/11/15 14:16:22;;;;;;;14.82;6.93;;;;;;;;;;4853748;29;20446;-74
2022/11/15 14:18:49;;;;;;;12.93;6.80;;;;;;;;;;4853481;29;20042;-71
2022/11/15 14:21:16;;;;;;;13.90;5.90;;;;;;;;;;4850484;29;20399;-73
2022/11/15 14:23:42;;;;;;;14.23;6.20;;;;;;;;;;4851955;29;20056;-72
2022/11/15 14:26:08;;;;;;;;;;;;;;;;;;4856947;29;20137;-72
2022/11/15 14:28:37;;;;;;;14.80;5.93;;;;;;;;;;4856117;29;20385;-72
2022/11/15 14:31:07;;;;;;;12.55;5.97;;;;;;;;;;4856459;29;20057;-73
2022/11/15 14:33:34;;;;;;;17.83;6.15;;;;;;;;;;4859114;29;20140;-72
2022/11/15 14:36:05;;;;;;;16.52;6.43;;;;;;;;;;4870493;29;20143;-71
2022/11/15 14:38:31;;;;;;;13.23;6.00;;;;;;;;;;4875814;29;20045;-72
2022/11/15 14:40:58;;;;;;;15.90;6.05;;;;;;;;;;4873021;29;20073;-74
2022/11/15 14:43:24;;;;;;;17.77;7.43;;;;;;;;;;4876319;29;20469;-72
2022/11/15 14:45:50;;;;;;;;;;;;;;;;;;4876922;29;20061;-72
2022/11/15 14:48:16;;;;;;;18.23;6.13;;;;;;;;;;4877169;29;19928;-71
2022/11/15 14:50:42;;;;;;;13.75;5.88;;;;;;;;;;4858665;29;20113;-72
2022/11/15 14:53:13;;;;;;;13.10;6.32;;;;;;;;;;4877004;29;20170;-76
2022/11/15 14:55:39;;;;;;;13.80;5.90;;;;;;;;;;4875574;29;20127;-72
2022/11/15 14:58:07;;;;;;;11.77;5.28;;;;;;;;;;4875198;29;20065;-74
2022/11/15 15:00:34;;;;;;;12.10;4.60;;;;;;;;;;4875691;29;20057;-70
2022/11/15 15:03:01;;;;;;;12.43;4.70;;;;;;;;;;4856395;29;20037;-71
2022/11/15 15:05:34;;;;;;;12.23;4.40;;;;;;;;;;4866429;29;20465;-71
2022/11/15 15:08:00;;;;;;;10.57;4.00;;;;;;;;;;4876511;29;20052;-74
2022/11/15 15:10:28;;;;;;;11.52;4.75;;;;;;;;;;4843450;29;20063;-71
2022/11/15 15:12:54;;;;;;;12.35;4.63;;;;;;;;;;4872667;29;20041;-68
2022/11/15 15:15:40;;;;;;;10.85;4.35;;;;;;;;;;4857378;29;20053;-71
2022/11/15 15:18:08;;;;;;;14.43;5.00;;;;;;;;;;4873485;29;20136;-71
2022/11/15 15:20:35;;;;;;;11.48;4.80;;;;;;;;;;4874167;29;20128;-72
2022/11/15 15:23:01;;;;;;;11.75;5.00;;;;;;;;;;4849569;29;20109;-72
2022/11/15 15:25:37;;;;;;;13.52;5.47;;;;;;;;;;4864168;29;20076;-71
2022/11/15 15:28:03;;;;;;;11.15;5.07;;;;;;;;;;4871041;29;20065;-71
2022/11/15 15:30:30;;;;;;;12.50;5.57;;;;;;;;;;4859800;29;20057;-71
2022/11/15 15:32:56;;;;;;;13.70;4.78;;;;;;;;;;4864926;29;20378;-71
2022/11/15 15:35:23;;;;;;;11.05;4.50;;;;;;;;;;4868196;29;20077;-71
2022/11/15 15:37:49;;;;;;;10.90;5.50;;;;;;;;;;4876119;29;20077;-71
2022/11/15 15:40:20;;;;;;;15.43;6.25;;;;;;;;;;4843775;29;20057;-73
2022/11/15 15:42:46;;;;;;;13.55;6.72;;;;;;;;;;4873090;29;20059;-73
2022/11/15 15:45:12;;;;;;;;;;;;;;;;;;4865126;29;20067;-72
2022/11/15 15:47:38;;;;;;;25.60;16.77;;;;;;;;;;4867808;29;20436;-68
2022/11/15 15:50:12;;;;;;;23.55;14.63;;;;;;;;;;4871277;29;20052;-74
2022/11/15 15:52:38;;;;;;;16.05;10.32;;;;;;;;;;4856216;29;20045;-71
2022/11/15 15:55:04;;;;;;;17.55;11.48;;;;;;;;;;4875636;29;20135;-70
2022/11/15 15:57:31;;;;;;;23.35;15.43;;;;;;;;;;4871326;29;20486;-70
2022/11/15 15:59:57;;;;;;;31.02;20.83;;;;;;;;;;4865229;29;20052;-71
2022/11/15 16:02:23;;;;;;;15.85;9.45;;;;;;;;;;4857151;29;20084;-72
2022/11/15 16:04:49;;;;;;;15.00;10.02;;;;;;;;;;4871137;29;20072;-68
2022/11/15 16:07:23;;;;;;;16.02;10.38;;;;;;;;;;4864706;29;20053;-73
2022/11/15 16:10:02;;;;;;;13.98;7.95;;;;;;;;;;4861804;29;20132;-68
2022/11/15 16:12:32;;;;;;;13.43;7.80;;;;;;;;;;4869296;29;20476;-69
2022/11/15 16:14:58;;;;;;;14.10;8.70;;;;;;;;;;4863447;29;20093;-66
2022/11/15 16:17:24;;;;;;;;;;;;;;;;;;4877345;29;20049;-71
2022/11/15 16:19:50;;;;;;;13.60;8.02;;;;;;;;;;4863792;29;20413;-68
2022/11/15 16:22:16;;;;;;;14.38;7.68;;;;;;;;;;4868802;29;20418;-70
2022/11/15 16:24:43;;;;;;;13.85;7.80;;;;;;;;;;4873734;29;20045;-70
2022/11/15 16:27:16;;;;;;;14.05;8.25;;;;;;;;;;4853978;29;20221;-67
2022/11/15 16:29:42;;;;;;;12.43;8.02;;;;;;;;;;4866990;29;20045;-71
2022/11/15 16:32:09;;;;;;;14.55;8.75;;;;;;;;;;4867576;29;20370;-69
2022/11/15 16:34:35;;;;;;;14.45;8.20;;;;;;;;;;4871397;29;20153;-67
2022/11/15 16:37:01;;;;;;;13.23;8.55;;;;;;;;;;4868533;29;20469;-68
2022/11/15 16:39:29;;;;;;;14.57;8.43;;;;;;;;;;4874396;29;20197;-69
2022/11/15 16:41:56;;;;;;;15.73;8.95;;;;;;;;;;4874620;29;20045;-68
2022/11/15 16:44:23;;;;;;;14.40;7.90;;;;;;;;;;4855311;29;20541;-72
2022/11/15 16:46:53;;;;;;;15.40;8.77;;;;;;;;;;4855902;29;20121;-70
2022/11/15 16:49:19;;;;;;;16.20;8.43;;;;;;;;;;4857223;29;20068;-70
2022/11/15 16:51:47;;;;;;;14.63;8.32;;;;;;;;;;4868343;29;20135;-68
2022/11/15 16:54:14;;;;;;;13.70;8.38;;;;;;;;;;4871567;29;20108;-69
2022/11/15 16:56:40;;;;;;;14.30;8.88;;;;;;;;;;4872614;29;20049;-68
2022/11/15 16:59:06;;;;;;;16.00;8.68;;;;;;;;;;4875320;29;20124;-72
2022/11/15 17:01:45;;;;;;;12.85;7.78;;;;;;;;;;4873763;29;20488;-69
2022/11/15 17:04:12;;;;;;;14.30;7.72;;;;;;;;;;4856477;29;20144;-71
2022/11/15 17:06:42;;;;;;;14.52;7.50;;;;;;;;;;4855750;29;20079;-66
2022/11/15 17:09:19;;;;;;;13.15;7.57;;;;;;;;;;4873567;29;20048;-68
2022/11/15 17:11:45;;;;;;;11.93;6.40;;;;;;;;;;4870240;29;20693;-73
2022/11/15 17:14:11;;;;;;;13.60;7.03;;;;;;;;;;4873861;29;20121;-67
2022/11/15 17:16:41;;;;;;;13.25;6.40;;;;;;;;;;4869044;29;20414;-79
2022/11/15 17:19:11;;;;;;;12.27;6.50;;;;;;;;;;4853014;29;20097;-72
2022/11/15 17:21:37;;;;;;;13.35;6.45;;;;;;;;;;4866848;29;20052;-73
2022/11/15 17:24:03;;;;;;;15.13;6.57;;;;;;;;;;4872046;29;20045;-71
2022/11/15 17:26:29;;;;;;;11.38;5.80;;;;;;;;;;4874204;29;20453;-70
2022/11/15 17:28:56;;;;;;;13.77;6.20;;;;;;;;;;4868847;29;20056;-69
2022/11/15 17:31:22;;;;;;;;;;;;;;;;;;4875630;29;20085;-71
2022/11/15 17:33:48;;;;;;;14.75;5.93;;;;;;;;;;4874129;29;20388;-68
2022/11/15 17:36:14;;;;;;;13.07;5.78;;;;;;;;;;4873797;29;20075;-72
2022/11/15 17:38:43;;;;;;;10.88;5.38;;;;;;;;;;4872469;29;20458;-68
2022/11/15 17:41:11;;;;;;;10.57;4.90;;;;;;;;;;4860097;29;20060;-70
2022/11/15 17:43:37;;;;;;;10.15;5.20;;;;;;;;;;4858330;29;20148;-72
2022/11/15 17:46:04;;;;;;;10.30;4.90;;;;;;;;;;4874471;29;20083;-72
2022/11/15 17:48:30;;;;;;;12.20;5.68;;;;;;;;;;4872846;29;20045;-68
2022/11/15 17:50:58;;;;;;;12.63;5.90;;;;;;;;;;4874211;29;20094;-68
2022/11/15 17:53:24;;;;;;;12.77;5.80;;;;;;;;;;4857664;29;20533;-71
2022/11/15 17:55:50;;;;;;;;;;;;;;;;;;4876126;29;20132;-66
2022/11/15 17:58:19;;;;;;;10.30;5.15;;;;;;;;;;4878159;29;20010;-69
2022/11/15 18:00:46;;;;;;;13.18;5.47;;;;;;;;;;4875177;29;20113;-66
2022/11/15 18:03:12;;;;;;;9.48;5.05;;;;;;;;;;4861425;29;20049;-76
2022/11/15 18:05:39;;;;;;;13.50;4.78;;;;;;;;;;4861698;29;20438;-69
2022/11/15 18:08:06;;;;;;;12.48;5.10;;;;;;;;;;4878090;29;20218;-68
2022/11/15 18:10:32;;;;;;;14.70;5.75;;;;;;;;;;4878380;29;20478;-69
2022/11/15 18:12:58;;;;;;;10.07;4.88;;;;;;;;;;4877446;29;20135;-70
2022/11/15 18:15:24;;;;;;;10.65;5.00;;;;;;;;;;4879336;29;20056;-68
2022/11/15 18:17:50;;;;;;;11.00;5.05;;;;;;;;;;4877680;29;20076;-69
2022/11/15 18:20:16;;;;;;;13.25;5.60;;;;;;;;;;4877808;29;20423;-69
2022/11/15 18:22:42;;;;;;;10.73;5.18;;;;;;;;;;4874463;29;20115;-68
2022/11/15 18:25:08;;;;;;;14.20;7.05;;;;;;;;;;4876395;29;20125;-68
2022/11/15 18:27:34;;;;;;;12.52;5.15;;;;;;;;;;4877025;29;20484;-68
2022/11/15 18:30:00;;;;;;;11.32;5.43;;;;;;;;;;4877558;29;20103;-68
2022/11/15 18:32:27;;;;;;;10.60;5.07;;;;;;;;;;4876115;29;20059;-69
2022/11/15 18:34:53;;;;;;;;;;;;;;;;;;4876137;29;20053;-69
2022/11/15 18:37:19;;;;;;;12.77;5.10;;;;;;;;;;4877246;29;19923;-69
2022/11/15 18:39:46;;;;;;;10.40;4.90;;;;;;;;;;4877290;29;20076;-68
2022/11/15 18:42:11;;;;;;;;;;;;;;;;;;4827921;29;20084;-69
2022/11/15 18:44:38;;;;;;;17.02;8.57;;;;;;;;;;4871943;29;19932;-69
2022/11/15 18:47:04;;;;;;;11.73;6.20;;;;;;;;;;4875964;29;20171;-68
2022/11/15 18:49:30;;;;;;;12.57;5.50;;;;;;;;;;4876264;29;20148;-69
2022/11/15 18:51:56;;;;;;;12.55;5.53;;;;;;;;;;4875620;29;20049;-68
2022/11/15 18:54:22;;;;;;;10.07;4.88;;;;;;;;;;4877216;29;20128;-68
2022/11/15 18:56:48;;;;;;;12.05;6.97;;;;;;;;;;4874546;29;20059;-69
2022/11/15 18:59:15;;;;;;;12.27;5.57;;;;;;;;;;4876863;29;20128;-68
2022/11/15 19:01:42;;;;;;;10.85;5.63;;;;;;;;;;4877242;29;20045;-68
2022/11/15 19:04:19;;;;;;;11.73;5.45;;;;;;;;;;4860043;29;20059;-71
2022/11/15 19:06:46;;;;;;;9.57;5.00;;;;;;;;;;4874280;29;20049;-82
2022/11/15 19:09:14;;;;;;;10.50;5.05;;;;;;;;;;4874633;29;20124;-72
2022/11/15 19:11:41;;;;;;;11.50;5.28;;;;;;;;;;4859957;29;20057;-69
2022/11/15 19:14:07;;;;;;;;;;;;;;;;;;4877078;29;20096;-69
2022/11/15 19:16:34;;;;;;;11.90;4.85;;;;;;;;;;4876398;29;20443;-70
2022/11/15 19:19:04;;;;;;;12.73;5.40;;;;;;;;;;4876657;29;20128;-71
2022/11/15 19:21:30;;;;;;;10.98;5.15;;;;;;;;;;4876810;29;20456;-68
2022/11/15 19:23:57;;;;;;;13.00;5.50;;;;;;;;;;4874056;29;20048;-61
2022/11/15 19:26:23;;;;;;;;;;;;;;;;;;4860657;29;20063;-64
2022/11/15 19:28:50;;;;;;;14.07;5.22;;;;;;;;;;4876257;29;19924;-69
2022/11/15 19:31:17;;;;;;;13.55;5.28;;;;;;;;;;4876204;29;20116;-66
2022/11/15 19:33:44;;;;;;;11.60;5.22;;;;;;;;;;4876095;29;20052;-68
2022/11/15 19:36:15;;;;;;;11.13;4.65;;;;;;;;;;4875267;29;20171;-71
2022/11/15 19:38:41;;;;;;;11.52;5.03;;;;;;;;;;4876856;29;20446;-67
2022/11/15 19:41:09;;;;;;;12.00;4.80;;;;;;;;;;4875550;29;20395;-69
2022/11/15 19:43:35;;;;;;;10.80;4.53;;;;;;;;;;4875683;29;20148;-65
2022/11/15 19:46:03;;;;;;;11.10;5.28;;;;;;;;;;4874820;29;20053;-70
2022/11/15 19:48:30;;;;;;;12.50;5.25;;;;;;;;;;4877102;29;20410;-68
2022/11/15 19:51:00;;;;;;;14.02;5.28;;;;;;;;;;4859195;29;20335;-66
2022/11/15 19:53:26;;;;;;;13.10;5.25;;;;;;;;;;4876363;29;20069;-67
2022/11/15 19:55:55;;;;;;;11.20;5.82;;;;;;;;;;4857548;29;20124;-65
2022/11/15 19:58:21;;;;;;;12.10;6.80;;;;;;;;;;4875796;29;20049;-66
2022/11/15 20:00:47;;;;;;;;;;;;;;;;;;4875944;29;20090;-70
2022/11/15 20:03:13;;;;;;;12.20;5.05;;;;;;;;;;4876901;29;20138;-66
2022/11/15 20:05:39;;;;;;;18.20;6.15;;;;;;;;;;4874022;29;20469;-69
2022/11/15 20:08:05;;;;;;;10.18;4.95;;;;;;;;;;4875784;29;20053;-69
2022/11/15 20:10:32;;;;;;;15.15;5.63;;;;;;;;;;4875441;29;20045;-69
2022/11/15 20:12:59;;;;;;;13.38;5.43;;;;;;;;;;4875649;29;20045;-68
2022/11/15 20:15:25;;;;;;;12.07;5.40;;;;;;;;;;4874902;29;20061;-70
2022/11/15 20:17:51;;;;;;;11.75;5.68;;;;;;;;;;4854609;29;20335;-68
2022/11/15 20:20:17;;;;;;;16.63;5.88;;;;;;;;;;4871835;29;20053;-65
2022/11/15 20:22:43;;;;;;;11.75;5.55;;;;;;;;;;4875418;29;20144;-68
2022/11/15 20:25:09;;;;;;;10.77;5.43;;;;;;;;;;4875023;29;20049;-67
2022/11/15 20:27:36;;;;;;;12.85;5.63;;;;;;;;;;4875439;29;20183;-67
2022/11/15 20:30:03;;;;;;;12.10;5.05;;;;;;;;;;4874629;29;20080;-72
2022/11/15 20:32:30;;;;;;;12.15;5.13;;;;;;;;;;4876079;29;20096;-84
2022/11/15 20:34:56;;;;;;;12.63;5.45;;;;;;;;;;4872510;29;20108;-83
2022/11/15 20:37:22;;;;;;;12.50;5.70;;;;;;;;;;4875888;29;20096;-71
2022/11/15 20:39:49;;;;;;;12.60;5.25;;;;;;;;;;4873645;29;20044;-70
2022/11/15 20:42:15;;;;;;;11.57;5.88;;;;;;;;;;4871747;29;20668;-71
2022/11/15 20:44:41;;;;;;;11.55;5.63;;;;;;;;;;4863139;29;20497;-70
2022/11/15 20:47:07;;;;;;;13.75;5.43;;;;;;;;;;4865757;29;20116;-71
2022/11/15 20:49:33;;;;;;;12.07;6.10;;;;;;;;;;4854065;29;20045;-70
2022/11/15 20:51:59;;;;;;;12.65;5.82;;;;;;;;;;4873212;29;20097;-70
2022/11/15 20:54:25;;;;;;;12.02;6.20;;;;;;;;;;4872284;29;20129;-70
2022/11/15 20:56:51;;;;;;;15.02;6.00;;;;;;;;;;4870160;29;20088;-71
2022/11/15 20:59:17;;;;;;;13.95;6.20;;;;;;;;;;4869181;29;20151;-71
2022/11/15 21:01:45;;;;;;;12.77;6.00;;;;;;;;;;4864167;29;20041;-71
2022/11/15 21:04:11;;;;;;;12.38;6.10;;;;;;;;;;4869129;29;20151;-71
2022/11/15 21:06:37;;;;;;;12.27;6.38;;;;;;;;;;4871945;29;20074;-70
2022/11/15 21:14:33;;;;;;;12.52;6.43;;;;;;;;;;4873729;29;20096;-71
2022/11/15 21:16:59;;;;;;;12.07;6.63;;;;;;;;;;4870578;29;20052;-69
2022/11/15 21:19:26;;;;;;;14.15;7.40;;;;;;;;;;4851240;29;20056;-69
2022/11/15 21:21:52;;;;;;;12.57;7.25;;;;;;;;;;4856385;29;20358;-70
2022/11/15 21:24:19;;;;;;;16.58;7.35;;;;;;;;;;4872139;29;20052;-70
2022/11/15 21:26:45;;;;;;;14.30;7.65;;;;;;;;;;4872375;29;20526;-71
2022/11/15 21:29:15;;;;;;;14.85;7.85;;;;;;;;;;4871657;29;20383;-72
2022/11/15 21:31:42;;;;;;;15.20;8.45;;;;;;;;;;4874619;29;20048;-72
2022/11/15 21:34:09;;;;;;;15.77;9.00;;;;;;;;;;4877301;29;20096;-71
2022/11/15 21:36:35;;;;;;;15.75;8.27;;;;;;;;;;4874775;29;20072;-74
2022/11/15 21:39:01;;;;;;;14.65;8.30;;;;;;;;;;4875899;29;20053;-71
2022/11/15 21:41:27;;;;;;;14.73;8.23;;;;;;;;;;4868975;29;20458;-71
2022/11/15 21:44:00;;;;;;;16.48;9.07;;;;;;;;;;4872814;29;20045;-71
2022/11/15 21:46:28;;;;;;;18.20;9.60;;;;;;;;;;4876064;29;20072;-70
2022/11/15 21:48:54;;;;;;;17.17;9.70;;;;;;;;;;4876752;29;20128;-74
2022/11/15 21:51:20;;;;;;;16.20;9.63;;;;;;;;;;4855846;29;20351;-77
2022/11/15 21:53:46;;;;;;;15.23;8.98;;;;;;;;;;4872107;29;20386;-77
2022/11/15 21:56:12;;;;;;;15.60;9.35;;;;;;;;;;4857987;29;20064;-78
2022/11/15 21:58:39;;;;;;;16.40;9.30;;;;;;;;;;4868442;29;20126;-76
2022/11/15 22:03:50;;;;;;;15.40;8.98;;;;;;;;;;4873225;29;20144;-86
2022/11/15 22:06:16;;;;;;;17.05;9.43;;;;;;;;;;4876172;29;20053;-78
2022/11/15 22:08:42;;;;;;;;;;;;;;;;;;4878280;29;20068;-82
2022/11/15 22:11:08;;;;;;;18.88;9.65;;;;;;;;;;4876481;29;19944;-74
2022/11/15 22:13:35;;;;;;;16.48;9.43;;;;;;;;;;4875401;29;20044;-74
2022/11/15 22:16:01;;;;;;;;;;;;;;;;;;4874667;29;20053;-78
2022/11/15 22:18:27;;;;;;;15.80;9.23;;;;;;;;;;4861071;29;20468;-83
2022/11/15 22:20:57;;;;;;;19.13;10.60;;;;;;;;;;4876954;29;20049;-70
2022/11/15 22:23:24;;;;;;;17.02;10.63;;;;;;;;;;4875072;29;20132;-75
2022/11/15 22:25:50;;;;;;;17.30;9.45;;;;;;;;;;4876075;29;20071;-79
2022/11/15 22:28:17;;;;;;;17.92;10.18;;;;;;;;;;4858341;29;20124;-75
2022/11/15 22:30:46;;;;;;;16.85;10.15;;;;;;;;;;4877173;29;20155;-76
2022/11/15 22:33:12;;;;;;;19.33;11.10;;;;;;;;;;4877400;29;20041;-74
2022/11/15 22:35:39;;;;;;;17.95;10.23;;;;;;;;;;4876346;29;20052;-77
2022/11/15 22:38:05;;;;;;;18.98;10.43;;;;;;;;;;4876795;29;20489;-77
2022/11/15 22:40:32;;;;;;;18.17;10.15;;;;;;;;;;4876763;29;20061;-71
2022/11/15 22:42:58;;;;;;;16.40;9.60;;;;;;;;;;4878233;29;20052;-78
2022/11/15 22:45:24;;;;;;;17.33;10.07;;;;;;;;;;4872433;29;20057;-74
2022/11/15 22:47:50;;;;;;;15.48;10.23;;;;;;;;;;4877672;29;20144;-75
2022/11/15 22:50:16;;;;;;;15.88;9.98;;;;;;;;;;4874402;29;20052;-77
2022/11/15 22:52:42;;;;;;;15.27;10.85;;;;;;;;;;4877554;29;20208;-76
2022/11/15 22:55:08;;;;;;;18.90;11.30;;;;;;;;;;4873170;29;20412;-73
2022/11/15 22:57:37;;;;;;;18.55;11.65;;;;;;;;;;4875878;29;20049;-79
2022/11/15 23:00:11;;;;;;;17.02;11.50;;;;;;;;;;4857704;29;20128;-69
2022/11/15 23:02:37;;;;;;;16.40;11.27;;;;;;;;;;4873285;29;20126;-74
2022/11/15 23:05:03;;;;;;;20.63;11.38;;;;;;;;;;4876598;29;20106;-71
2022/11/15 23:07:29;;;;;;;;;;;;;;;;;;4874912;29;20096;-80
2022/11/15 23:13:14;;;;;;;20.38;12.10;;;;;;;;;;4875947;29;19982;-76
2022/11/15 23:15:25;;;;;;;18.63;12.68;;;;;;;;;;4876869;29;20156;-73
2022/11/15 23:17:52;;;;;;;17.75;11.65;;;;;;;;;;4873466;29;20464;-75
2022/11/15 23:20:18;;;;;;;20.48;13.05;;;;;;;;;;4874393;29;20053;-78
2022/11/15 23:22:47;;;;;;;19.88;12.52;;;;;;;;;;4875928;29;20128;-77
2022/11/15 23:25:13;;;;;;;20.95;13.30;;;;;;;;;;4876698;29;20489;-73